createdAt,value
2023-11-13T00:02:23.809Z,89.27
2023-11-13T00:04:50.815Z,89.07
2023-11-13T00:07:17.680Z,89.40
2023-11-13T00:09:44.518Z,89.52
2023-11-13T00:12:11.891Z,89.89
2023-11-13T00:14:39.140Z,89.76
2023-11-13T00:17:06.036Z,89.99
2023-11-13T00:19:33.060Z,90.33
2023-11-13T00:21:59.846Z,90.20
2023-11-13T00:24:27.105Z,90.24
2023-11-13T00:26:53.878Z,90.50
2023-11-13T00:29:20.839Z,90.55
2023-11-13T00:31:47.705Z,90.48
2023-11-13T00:34:14.513Z,91.00
2023-11-13T00:36:42.079Z,90.96
2023-11-13T00:39:11.536Z,91.12
2023-11-13T00:41:42.295Z,91.41
2023-11-13T00:44:09.274Z,91.88
2023-11-13T00:46:36.432Z,91.78
2023-11-13T00:49:03.256Z,91.84
2023-11-13T00:51:30.259Z,91.99
2023-11-13T00:53:57.032Z,92.66
2023-11-13T00:56:23.812Z,92.97
2023-11-13T00:58:50.610Z,92.98
2023-11-13T01:01:17.602Z,93.24
2023-11-13T01:03:44.489Z,93.24
2023-11-13T01:06:19.054Z,93.11
2023-11-13T01:08:45.878Z,93.50
2023-11-13T01:11:13.398Z,94.11
2023-11-13T01:13:40.248Z,94.30
2023-11-13T01:16:07.705Z,94.23
2023-11-13T01:18:35.193Z,94.03
2023-11-13T01:21:02.219Z,94.00
2023-11-13T01:23:29.070Z,93.76
2023-11-13T01:25:55.957Z,93.82
2023-11-13T01:28:22.900Z,93.77
2023-11-13T01:30:50.046Z,93.66
2023-11-13T01:33:16.965Z,93.45
2023-11-13T01:35:43.774Z,93.38
2023-11-13T01:38:10.478Z,93.42
2023-11-13T01:40:41.598Z,93.29
2023-11-13T01:43:22.803Z,93.51
2023-11-13T01:45:54.587Z,93.21
2023-11-13T01:48:22.363Z,93.43
2023-11-13T01:50:50.711Z,93.48
2023-11-13T01:53:24.513Z,93.39
2023-11-13T01:55:54.297Z,93.52
2023-11-13T01:58:24.471Z,93.54
2023-11-13T02:00:51.700Z,93.34
2023-11-13T02:03:20.502Z,93.50
2023-11-13T02:05:48.167Z,93.38
2023-11-13T02:08:14.991Z,93.46
2023-11-13T02:10:43.339Z,93.78
2023-11-13T02:13:11.677Z,93.74
2023-11-13T02:15:38.830Z,93.68
2023-11-13T02:18:06.476Z,93.81
2023-11-13T02:20:36.161Z,93.95
2023-11-13T02:23:03.764Z,94.01
2023-11-13T02:25:37.185Z,94.12
2023-11-13T02:28:06.103Z,94.32
2023-11-13T02:30:40.408Z,94.36
2023-11-13T02:33:07.435Z,94.50
2023-11-13T02:35:34.619Z,94.64
2023-11-13T02:38:01.593Z,94.68
2023-11-13T02:40:28.642Z,94.84
2023-11-13T02:42:55.638Z,94.94
2023-11-13T02:45:24.791Z,94.85
2023-11-13T02:47:54.510Z,94.88
2023-11-13T02:50:22.345Z,95.00
2023-11-13T02:52:49.156Z,95.07
2023-11-13T02:55:16.132Z,94.99
2023-11-13T02:57:42.889Z,94.83
2023-11-13T03:00:11.223Z,95.08
2023-11-13T03:02:38.725Z,95.15
2023-11-13T03:05:07.144Z,95.19
2023-11-13T03:07:33.940Z,95.01
2023-11-13T03:10:01.200Z,94.95
2023-11-13T03:12:28.916Z,95.01
2023-11-13T03:14:56.006Z,94.94
2023-11-13T03:17:22.815Z,94.81
2023-11-13T03:19:50.480Z,94.60
2023-11-13T03:22:17.307Z,94.75
2023-11-13T03:24:45.844Z,94.46
2023-11-13T03:27:12.753Z,94.64
2023-11-13T03:29:40.331Z,94.77
2023-11-13T03:32:07.789Z,94.95
2023-11-13T03:34:34.628Z,95.17
2023-11-13T03:37:02.900Z,94.87
2023-11-13T03:39:29.608Z,94.93
2023-11-13T03:41:57.190Z,95.18
2023-11-13T03:44:23.947Z,95.38
2023-11-13T03:46:52.522Z,95.19
2023-11-13T03:49:19.336Z,95.21
2023-11-13T03:51:46.182Z,95.22
2023-11-13T03:54:13.615Z,95.41
2023-11-13T03:56:40.403Z,95.21
2023-11-13T03:59:07.095Z,95.01
2023-11-13T04:01:34.326Z,95.33
2023-11-13T04:04:01.231Z,95.16
2023-11-13T04:06:28.024Z,95.47
2023-11-13T04:08:54.782Z,95.49
2023-11-13T04:11:21.658Z,95.56
2023-11-13T04:13:48.455Z,95.48
2023-11-13T04:18:42.438Z,95.46
2023-11-13T04:21:09.162Z,95.22
2023-11-13T04:23:36.206Z,95.05
2023-11-13T04:26:03.606Z,95.28
2023-11-13T04:28:36.326Z,95.04
2023-11-13T04:31:05.161Z,95.03
2023-11-13T04:33:31.983Z,95.15
2023-11-13T04:36:03.001Z,94.82
2023-11-13T04:38:31.336Z,94.91
2023-11-13T04:40:59.112Z,94.77
2023-11-13T04:43:27.716Z,94.90
2023-11-13T04:45:55.184Z,95.34
2023-11-13T04:48:22.111Z,95.58
2023-11-13T04:50:49.611Z,95.51
2023-11-13T04:53:16.338Z,95.75
2023-11-13T04:55:43.714Z,95.77
2023-11-13T04:58:10.576Z,95.78
2023-11-13T05:00:37.372Z,95.63
2023-11-13T05:03:04.115Z,95.53
2023-11-13T05:05:34.150Z,95.65
2023-11-13T05:08:01.436Z,95.57
2023-11-13T05:10:29.134Z,95.79
2023-11-13T05:12:55.983Z,95.73
2023-11-13T05:15:22.806Z,95.80
2023-11-13T05:17:49.696Z,96.16
2023-11-13T05:20:17.628Z,96.26
2023-11-13T05:22:44.886Z,96.20
2023-11-13T05:25:12.792Z,96.42
2023-11-13T05:27:39.906Z,96.52
2023-11-13T05:30:08.999Z,96.68
2023-11-13T05:32:36.381Z,96.39
2023-11-13T05:35:03.209Z,96.67
2023-11-13T05:37:30.049Z,97.08
2023-11-13T05:39:56.829Z,97.29
2023-11-13T05:42:25.286Z,97.33
2023-11-13T05:44:52.084Z,97.47
2023-11-13T05:47:18.984Z,97.45
2023-11-13T05:49:46.112Z,97.48
2023-11-13T05:52:12.996Z,97.68
2023-11-13T05:54:39.796Z,97.62
2023-11-13T05:57:06.529Z,97.71
2023-11-13T05:59:33.488Z,97.43
2023-11-13T06:02:00.283Z,97.38
2023-11-13T06:04:27.440Z,97.46
2023-11-13T06:06:54.341Z,97.20
2023-11-13T06:09:21.335Z,97.34
2023-11-13T06:11:48.257Z,96.89
2023-11-13T06:14:15.041Z,96.75
2023-11-13T06:16:41.792Z,96.80
2023-11-13T06:19:09.077Z,96.75
2023-11-13T06:21:35.962Z,96.51
2023-11-13T06:24:02.764Z,96.53
2023-11-13T06:26:29.567Z,96.39
2023-11-13T06:28:56.395Z,96.40
2023-11-13T06:31:26.970Z,96.58
2023-11-13T06:33:54.504Z,96.79
2023-11-13T06:36:21.345Z,96.66
2023-11-13T06:38:49.158Z,96.69
2023-11-13T06:41:16.240Z,96.68
2023-11-13T06:43:43.078Z,96.88
2023-11-13T06:46:09.929Z,96.70
2023-11-13T06:48:38.094Z,96.79
2023-11-13T06:51:07.465Z,96.95
2023-11-13T06:53:34.922Z,97.14
2023-11-13T06:56:01.964Z,96.68
2023-11-13T06:58:28.865Z,96.97
2023-11-13T07:00:56.663Z,96.72
2023-11-13T07:03:23.557Z,96.24
2023-11-13T07:05:50.508Z,96.18
2023-11-13T07:08:17.319Z,95.90
2023-11-13T07:10:44.941Z,95.57
2023-11-13T07:13:14.942Z,95.34
2023-11-13T07:15:42.108Z,95.23
2023-11-13T07:18:09.298Z,95.14
2023-11-13T07:20:36.966Z,95.22
2023-11-13T07:23:04.494Z,94.85
2023-11-13T07:25:31.496Z,94.71
2023-11-13T07:27:59.286Z,94.65
2023-11-13T07:30:28.888Z,94.43
2023-11-13T07:32:56.025Z,94.58
2023-11-13T07:35:23.003Z,94.37
2023-11-13T07:37:49.910Z,94.03
2023-11-13T07:40:17.190Z,93.92
2023-11-13T07:42:45.365Z,94.01
2023-11-13T07:45:13.883Z,94.05
2023-11-13T07:47:41.589Z,93.77
2023-11-13T07:50:15.615Z,93.69
2023-11-13T07:52:43.632Z,93.59
2023-11-13T07:55:14.272Z,93.37
2023-11-13T07:57:45.129Z,93.55
2023-11-13T08:00:16.519Z,93.28
2023-11-13T08:02:44.422Z,92.98
2023-11-13T08:05:13.210Z,93.05
2023-11-13T08:07:41.539Z,93.18
2023-11-13T08:10:18.641Z,93.10
2023-11-13T08:12:47.469Z,92.56
2023-11-13T08:15:15.274Z,92.53
2023-11-13T08:17:46.852Z,92.18
2023-11-13T08:20:16.102Z,92.29
2023-11-13T08:22:43.926Z,92.23
2023-11-13T08:25:14.200Z,91.89
2023-11-13T08:27:44.860Z,91.50
2023-11-13T08:30:15.879Z,91.55
2023-11-13T08:32:43.386Z,91.45
2023-11-13T08:35:14.703Z,90.92
2023-11-13T08:37:47.564Z,90.71
2023-11-13T08:40:21.301Z,89.92
2023-11-13T08:42:48.426Z,89.98
2023-11-13T08:45:17.489Z,89.76
2023-11-13T08:47:44.258Z,89.46
2023-11-13T08:50:13.341Z,89.26
2023-11-13T08:52:42.446Z,89.11
2023-11-13T08:55:14.280Z,89.11
2023-11-13T08:57:43.017Z,89.17
2023-11-13T09:00:20.410Z,88.55
2023-11-13T09:02:50.860Z,88.21
2023-11-13T09:05:19.650Z,88.01
2023-11-13T09:07:46.894Z,87.24
2023-11-13T09:10:13.949Z,87.02
2023-11-13T09:12:41.202Z,86.49
2023-11-13T09:15:15.017Z,86.46
2023-11-13T09:17:45.266Z,86.72
2023-11-13T09:20:20.964Z,86.20
2023-11-13T09:22:48.726Z,85.59
2023-11-13T09:25:16.660Z,85.48
2023-11-13T09:27:44.768Z,85.66
2023-11-13T09:30:13.065Z,84.78
2023-11-13T09:32:46.975Z,84.58
2023-11-13T09:35:26.249Z,84.33
2023-11-13T09:37:56.126Z,83.85
2023-11-13T09:40:31.225Z,84.04
2023-11-13T09:43:08.755Z,83.93
2023-11-13T09:45:37.782Z,83.62
2023-11-13T09:48:08.420Z,84.10
2023-11-13T09:50:35.935Z,83.27
2023-11-13T09:53:05.068Z,83.68
2023-11-13T09:55:33.419Z,83.81
2023-11-13T09:58:02.607Z,82.14
2023-11-13T10:00:33.834Z,82.31
2023-11-13T10:03:01.753Z,82.00
2023-11-13T10:05:31.723Z,81.21
2023-11-13T10:07:59.505Z,80.57
2023-11-13T10:10:30.688Z,79.92
2023-11-13T10:13:02.629Z,80.12
2023-11-13T10:15:31.717Z,80.03
2023-11-13T10:18:00.775Z,80.16
2023-11-13T10:20:28.504Z,80.95
2023-11-13T10:23:07.735Z,81.70
2023-11-13T10:25:37.339Z,82.49
2023-11-13T10:28:04.223Z,82.86
2023-11-13T10:30:31.614Z,83.42
2023-11-13T10:32:59.650Z,84.41
2023-11-13T10:35:39.733Z,85.42
2023-11-13T10:38:09.309Z,85.55
2023-11-13T10:40:40.471Z,86.35
2023-11-13T10:43:09.214Z,87.03
2023-11-13T10:45:36.117Z,87.12
2023-11-13T10:48:04.235Z,86.97
2023-11-13T10:50:31.673Z,87.40
2023-11-13T10:53:00.431Z,87.62
2023-11-13T10:55:28.992Z,87.83
2023-11-13T10:57:56.927Z,87.49
2023-11-13T11:00:23.668Z,87.88
2023-11-13T11:02:55.241Z,88.13
2023-11-13T11:05:24.317Z,88.41
2023-11-13T11:07:55.724Z,88.32
2023-11-13T11:10:29.853Z,88.62
2023-11-13T11:13:07.254Z,88.40
2023-11-13T11:15:55.017Z,88.74
2023-11-13T11:18:35.977Z,89.05
2023-11-13T11:21:09.611Z,89.29
2023-11-13T11:23:47.611Z,88.90
2023-11-13T11:26:14.695Z,89.28
2023-11-13T11:28:46.749Z,89.54
2023-11-13T11:31:32.024Z,89.49
2023-11-13T11:33:58.979Z,89.82
2023-11-13T11:36:29.701Z,89.77
2023-11-13T11:39:26.469Z,89.87
2023-11-13T11:41:55.362Z,89.88
2023-11-13T11:44:30.011Z,90.23
2023-11-13T11:47:05.561Z,90.24
2023-11-13T11:49:44.503Z,90.28
2023-11-13T11:52:13.130Z,90.32
2023-11-13T11:54:40.269Z,90.25
2023-11-13T11:57:11.810Z,90.54
2023-11-13T11:59:40.989Z,90.72
2023-11-13T12:02:08.016Z,90.42
2023-11-13T12:04:35.286Z,90.58
2023-11-13T12:07:10.051Z,90.66
2023-11-13T12:09:40.207Z,90.78
2023-11-13T12:12:07.231Z,90.88
2023-11-13T12:14:33.997Z,90.90
2023-11-13T12:17:01.433Z,91.06
2023-11-13T12:19:28.384Z,91.13
2023-11-13T12:21:58.023Z,91.19
2023-11-13T12:24:25.171Z,91.52
2023-11-13T12:26:57.451Z,91.64
2023-11-13T12:29:27.817Z,91.87
2023-11-13T12:31:57.452Z,91.61
2023-11-13T12:34:25.135Z,91.55
2023-11-13T12:36:52.213Z,91.68
2023-11-13T12:39:24.354Z,91.72
2023-11-13T12:41:54.554Z,91.34
2023-11-13T12:44:23.354Z,91.27
2023-11-13T12:46:51.831Z,91.14
2023-11-13T12:49:18.753Z,90.60
2023-11-13T12:51:49.775Z,90.42
2023-11-13T12:54:17.622Z,90.34
2023-11-13T12:56:49.337Z,90.39
2023-11-13T12:59:21.650Z,90.37
2023-11-13T13:01:48.796Z,90.54
2023-11-13T13:04:16.886Z,90.52
2023-11-13T13:06:44.678Z,90.48
2023-11-13T13:09:13.666Z,90.48
2023-11-13T13:11:42.216Z,90.17
2023-11-13T13:14:10.342Z,90.51
2023-11-13T13:16:38.259Z,90.91
2023-11-13T13:19:06.135Z,91.23
2023-11-13T13:21:33.254Z,91.08
2023-11-13T13:24:00.761Z,91.46
2023-11-13T13:26:27.760Z,91.79
2023-11-13T13:28:55.122Z,92.11
2023-11-13T13:31:25.987Z,92.39
2023-11-13T13:33:54.032Z,92.95
2023-11-13T13:36:21.250Z,92.87
2023-11-13T13:38:48.260Z,93.38
2023-11-13T13:41:17.883Z,93.68
2023-11-13T13:43:45.059Z,94.18
2023-11-13T13:46:11.964Z,94.07
2023-11-13T13:48:41.469Z,94.38
2023-11-13T13:51:09.482Z,94.97
2023-11-13T13:53:37.210Z,95.14
2023-11-13T13:56:11.071Z,95.10
2023-11-13T13:58:39.099Z,95.28
2023-11-13T14:01:10.107Z,95.77
2023-11-13T14:03:37.038Z,95.88
2023-11-13T14:06:05.933Z,95.77
2023-11-13T14:08:33.214Z,96.32
2023-11-13T14:11:00.643Z,96.55
2023-11-13T14:13:28.568Z,96.48
2023-11-13T14:16:06.551Z,96.62
2023-11-13T14:18:39.071Z,96.87
2023-11-13T14:21:12.345Z,97.01
2023-11-13T14:23:44.395Z,97.41
2023-11-13T14:26:15.403Z,98.02
2023-11-13T14:28:42.727Z,97.77
2023-11-13T14:31:11.174Z,98.19
2023-11-13T14:33:40.326Z,98.18
2023-11-13T14:36:09.409Z,98.54
2023-11-13T14:38:36.549Z,98.83
2023-11-13T14:41:05.150Z,99.05
2023-11-13T14:43:32.444Z,99.13
2023-11-13T14:46:01.680Z,99.20
2023-11-13T14:48:28.713Z,99.27
2023-11-13T14:50:55.516Z,99.48
2023-11-13T14:53:22.402Z,99.60
2023-11-13T14:55:49.477Z,99.87
2023-11-13T14:58:16.830Z,99.83
2023-11-13T15:00:44.087Z,100.00
2023-11-13T15:03:10.883Z,100.00
2023-11-13T15:05:38.301Z,100.00
2023-11-13T15:08:05.217Z,100.00
2023-11-13T15:10:32.034Z,100.00
2023-11-13T15:12:58.777Z,100.00
2023-11-13T15:15:25.760Z,100.00
2023-11-13T15:17:52.649Z,100.00
2023-11-13T15:20:20.318Z,100.00
2023-11-13T15:23:08.829Z,100.00
2023-11-13T15:25:39.591Z,100.00
2023-11-13T15:28:06.356Z,100.00
2023-11-13T15:30:33.124Z,100.00
2023-11-13T15:33:05.216Z,100.00
2023-11-13T15:35:34.015Z,100.00
2023-11-13T15:38:03.252Z,100.00
2023-11-13T15:40:31.444Z,100.00
2023-11-13T15:42:58.223Z,100.00
2023-11-13T15:45:24.941Z,100.00
2023-11-13T15:47:51.988Z,100.00
2023-11-13T15:50:21.822Z,100.00
2023-11-13T15:52:49.522Z,100.00
2023-11-13T15:55:17.260Z,100.00
2023-11-13T15:57:45.252Z,100.00
2023-11-13T16:00:14.052Z,100.00
2023-11-13T16:02:41.995Z,100.00
2023-11-13T16:05:12.207Z,100.00
2023-11-13T16:07:39.253Z,100.00
2023-11-13T16:10:07.222Z,100.00
2023-11-13T16:12:34.134Z,100.00
2023-11-13T16:15:00.895Z,100.00
2023-11-13T16:17:31.404Z,100.00
2023-11-13T16:19:59.444Z,100.00
2023-11-13T16:22:26.440Z,100.00
2023-11-13T16:24:53.172Z,100.00
2023-11-13T16:27:20.130Z,100.00
2023-11-13T16:29:46.912Z,100.00
2023-11-13T16:32:14.471Z,100.00
2023-11-13T16:34:41.488Z,100.00
2023-11-13T16:37:10.085Z,100.00
2023-11-13T16:39:37.091Z,100.00
2023-11-13T16:42:04.778Z,100.00
2023-11-13T16:44:31.774Z,100.00
2023-11-13T16:46:58.735Z,100.00
2023-11-13T16:49:25.551Z,100.00
2023-11-13T16:51:52.245Z,100.00
2023-11-13T16:54:18.971Z,100.00
2023-11-13T16:56:45.672Z,100.00
2023-11-13T16:59:12.429Z,100.00
2023-11-13T17:01:41.412Z,100.00
2023-11-13T17:04:08.854Z,100.00
2023-11-13T17:06:35.620Z,100.00
2023-11-13T17:09:02.379Z,100.00
2023-11-13T17:11:30.237Z,100.00
2023-11-13T17:13:57.427Z,100.00
2023-11-13T17:16:24.793Z,100.00
2023-11-13T17:18:51.922Z,100.00
2023-11-13T17:21:19.195Z,100.00
2023-11-13T17:23:47.621Z,100.00
2023-11-13T17:26:14.648Z,100.00
2023-11-13T17:28:41.566Z,100.00
2023-11-13T17:31:09.030Z,100.00
2023-11-13T17:33:36.213Z,100.00
2023-11-13T17:36:04.411Z,100.00
2023-11-13T17:38:31.555Z,100.00
2023-11-13T17:41:02.157Z,100.00
2023-11-13T17:43:29.422Z,100.00
2023-11-13T17:45:59.449Z,100.00
2023-11-13T17:48:26.376Z,100.00
2023-11-13T17:50:53.510Z,100.00
2023-11-13T17:53:20.343Z,100.00
2023-11-13T17:55:47.180Z,100.00
2023-11-13T17:58:14.017Z,100.00
2023-11-13T18:00:40.921Z,100.00
2023-11-13T18:03:08.029Z,100.00
2023-11-13T18:05:35.168Z,100.00
2023-11-13T18:08:02.381Z,100.00
2023-11-13T18:10:29.825Z,100.00
2023-11-13T18:12:56.688Z,100.00
2023-11-13T18:15:25.002Z,100.00
2023-11-13T18:17:52.146Z,100.00
2023-11-13T18:20:19.682Z,100.00
2023-11-13T18:22:49.020Z,100.00
2023-11-13T18:25:17.346Z,100.00
2023-11-13T18:27:46.137Z,100.00
2023-11-13T18:30:14.035Z,100.00
2023-11-13T18:32:41.063Z,100.00
2023-11-13T18:35:08.682Z,100.00
2023-11-13T18:37:40.573Z,99.79
2023-11-13T18:40:09.981Z,99.82
2023-11-13T18:42:37.771Z,99.99
2023-11-13T18:45:06.605Z,99.18
2023-11-13T18:47:34.554Z,98.78
2023-11-13T18:50:01.602Z,98.37
2023-11-13T18:52:28.995Z,98.82
2023-11-13T18:54:56.711Z,98.83
2023-11-13T18:57:24.184Z,98.70
2023-11-13T18:59:51.132Z,99.54
2023-11-13T19:02:18.058Z,100.00
2023-11-13T19:04:45.514Z,99.16
2023-11-13T19:07:13.576Z,99.32
2023-11-13T19:09:40.390Z,97.73
2023-11-13T19:12:08.995Z,96.18
2023-11-13T19:14:35.755Z,94.40
2023-11-13T19:17:04.532Z,92.72
2023-11-13T19:19:31.322Z,92.78
2023-11-13T19:21:58.742Z,91.84
2023-11-13T19:24:25.527Z,90.05
2023-11-13T19:26:52.590Z,90.34
2023-11-13T19:29:22.832Z,89.08
2023-11-13T19:31:51.121Z,87.60
2023-11-13T19:34:19.402Z,88.38
2023-11-13T19:36:47.189Z,88.98
2023-11-13T19:39:14.636Z,88.16
2023-11-13T19:41:42.668Z,87.21
2023-11-13T19:44:09.554Z,87.07
2023-11-13T19:46:37.656Z,86.40
2023-11-13T19:49:09.253Z,85.52
2023-11-13T19:51:36.576Z,85.08
2023-11-13T19:54:04.931Z,85.00
2023-11-13T19:56:32.134Z,85.06
2023-11-13T19:58:59.506Z,84.89
2023-11-13T20:01:27.371Z,84.55
2023-11-13T20:03:54.822Z,84.09
2023-11-13T20:06:21.765Z,82.85
2023-11-13T20:08:51.548Z,82.50
2023-11-13T20:11:21.588Z,82.51
2023-11-13T20:13:48.488Z,82.31
2023-11-13T20:16:15.457Z,82.05
2023-11-13T20:18:42.260Z,82.21
2023-11-13T20:21:10.932Z,82.06
2023-11-13T20:23:38.477Z,81.58
2023-11-13T20:26:07.311Z,80.83
2023-11-13T20:28:35.012Z,81.02
2023-11-13T20:31:02.564Z,81.10
2023-11-13T20:33:29.791Z,80.99
2023-11-13T20:35:57.226Z,81.02
2023-11-13T20:38:24.231Z,80.90
2023-11-13T20:40:52.863Z,81.02
2023-11-13T20:43:20.766Z,80.78
2023-11-13T20:45:48.471Z,80.81
2023-11-13T20:48:15.759Z,80.94
2023-11-13T20:50:43.062Z,80.77
2023-11-13T20:53:10.613Z,81.01
2023-11-13T20:55:39.756Z,80.58
2023-11-13T20:58:06.977Z,79.61
2023-11-13T21:00:33.729Z,79.88
2023-11-13T21:03:00.582Z,80.04
2023-11-13T21:05:27.438Z,79.54
2023-11-13T21:07:54.976Z,79.20
2023-11-13T21:10:22.031Z,78.68
2023-11-13T21:12:48.995Z,78.69
2023-11-13T21:15:15.950Z,78.22
2023-11-13T21:17:45.420Z,78.16
2023-11-13T21:20:12.892Z,78.56
2023-11-13T21:22:41.721Z,78.58
2023-11-13T21:25:10.649Z,79.11
2023-11-13T21:27:40.115Z,79.51
2023-11-13T21:30:09.191Z,79.73
2023-11-13T21:32:36.210Z,80.18
2023-11-13T21:35:05.179Z,80.04
2023-11-13T21:37:32.409Z,80.32
2023-11-13T21:39:59.552Z,80.27
2023-11-13T21:42:27.046Z,79.67
2023-11-13T21:44:54.337Z,79.43
2023-11-13T21:47:21.366Z,79.03
2023-11-13T21:49:48.218Z,78.74
2023-11-13T21:52:15.400Z,78.58
2023-11-13T21:54:42.619Z,78.94
2023-11-13T21:57:11.261Z,78.73
2023-11-13T21:59:37.991Z,79.03
2023-11-13T22:02:07.877Z,78.82
2023-11-13T22:04:35.854Z,78.54
2023-11-13T22:07:03.835Z,78.61
2023-11-13T22:09:38.528Z,78.53
2023-11-13T22:12:06.076Z,78.56
2023-11-13T22:14:32.871Z,78.49
2023-11-13T22:17:02.733Z,78.29
2023-11-13T22:19:31.596Z,78.71
2023-11-13T22:21:58.394Z,78.72
2023-11-13T22:24:25.124Z,78.79
2023-11-13T22:26:51.830Z,79.04
2023-11-13T22:29:18.663Z,78.10
2023-11-13T22:31:45.429Z,78.17
2023-11-13T22:34:12.340Z,78.43
2023-11-13T22:36:41.550Z,78.87
2023-11-13T22:39:08.491Z,78.91
2023-11-13T22:41:35.328Z,78.97
2023-11-13T22:44:02.140Z,79.33
2023-11-13T22:46:29.557Z,79.39
2023-11-13T22:48:57.150Z,79.17
2023-11-13T22:51:23.959Z,79.46
2023-11-13T22:53:50.728Z,79.42
2023-11-13T22:56:17.593Z,79.62
2023-11-13T22:58:48.283Z,79.79
2023-11-13T23:01:15.121Z,79.86
2023-11-13T23:03:43.999Z,80.05
2023-11-13T23:06:10.789Z,79.60
2023-11-13T23:08:37.889Z,79.68
2023-11-13T23:11:05.015Z,79.51
2023-11-13T23:13:31.857Z,79.65
2023-11-13T23:15:58.700Z,79.46
2023-11-13T23:18:25.520Z,79.58
2023-11-13T23:20:52.333Z,79.42
2023-11-13T23:23:19.203Z,79.20
2023-11-13T23:25:49.674Z,79.29
2023-11-13T23:28:17.422Z,79.40
2023-11-13T23:30:44.788Z,79.49
2023-11-13T23:33:13.044Z,79.49
2023-11-13T23:35:39.986Z,79.57
2023-11-13T23:38:06.951Z,79.76
2023-11-13T23:40:34.895Z,79.71
2023-11-13T23:43:02.516Z,79.88
2023-11-13T23:45:29.296Z,79.93
2023-11-13T23:47:56.770Z,80.00
2023-11-13T23:50:23.654Z,80.27
2023-11-13T23:52:50.544Z,80.09
2023-11-13T23:55:18.657Z,80.13
2023-11-13T23:57:45.567Z,80.22
